La Guardia Airport
KLGA : now visible

Airfield :











YOU CAN JOIN US ON...

 
LOGIN :

Register | Disclaimer

   EN    FR    IT 

 









Legend :    VFR   Marginal VFR   IFR   Intensive IFR   Very Intensive IFR
Visi :
Ceiling :
>= 8 km
>= 3000ft
5 to 8 km
1000 to 3000 ft
1500m to 5 km
500 to 1000 ft
800 to 1500m
200 to 500 ft
< 800m
< 200 ft
Symbols :   Thunderstorms  Fog  Heavy snow  Heavy precipitations  Wind > 20 kt







- Airport Elevation : 21 ft
- IATA code : LGA


KLGA - La Guardia

CURRENT METAR :
  • 210609Z 05011KT 10SM -RA OVC005 01/M01 A3001 RMK AO2 RAB08FZRAE08 P0000 T00061006 $

EXPIRED METARs :
  • 210551Z 05011KT 6SM -FZRA BR OVC005 00/M01 A3001 RMK AO2 SLP163 931000 4/001 P0013 60047 T00001006 10000 21017 58065 $
  • 210541Z 06010KT 6SM -FZRA BR OVC005 00/M01 A3002 RMK AO2 PRESFR P0013 T00001006 $
  • 210451Z 06011KT 1 1/2SM -FZRA BR BKN005 OVC012 00/M01 A3010 RMK AO2 SFC VIS 2 1/2 SLP192 P0016 T00001011 400001033 $
  • 210351Z 06013KT 1 1/2SM -FZRA BR BKN005 OVC007 M01/M02 A3015 RMK AO2 SFC VIS 2 1/2 SLP208 P0006 T10061017 $

TAF KLGA
Valid from the 21 at 06:00 until the 22 at 12:00 UTC


210536Z 2106/2212 05009KT 2SM RA OVC005
TEMPO 2106/2107 -FZRA OVC005
FM210900 36004KT 2SM BR OVC004
FM211200 27008KT 6SM BR BKN004 OVC007
FM211400 26010KT P6SM BKN015 BKN025
FM211600 27012KT P6SM SCT025 SCT250
FM211800 29013G20KT P6SM SCT250
FM220000 30010KT P6SM SCT250
FM220600 32010KT P6SM SCT250
KZNY FIR / North America



MET'MAP, your aeronautical weather chart ! - Copyright ORBIFLY December 2007 - Disclaimer

ORBIFLY MET'MAP TEAM :

Programming & Development : Alexandra Zaïnal
Concept & Development : Baudouin d'Aumeries
Co-Development & Prog : Marc-Olivier Méhu
Technical & hardware support : Manuel Goepfert

Contact : metmap@orbifly.com




SOURCES & CREDITS :

   NOAA       Earth
Advisory